sensor_id;sensor_type;location;lat;lon;timestamp;pressure;altitude;pressure_sealevel;temperature;humidity
36600;BME280;35385;55.668;37.508;2023-01-29T00:00:09;99495.22;;;-1.58;100.00
36600;BME280;35385;55.668;37.508;2023-01-29T00:01:10;99471.16;;;-1.69;100.00
36600;BME280;35385;55.668;37.508;2023-01-29T00:02:10;99480.59;;;-1.63;100.00
36600;BME280;35385;55.668;37.508;2023-01-29T00:03:11;99481.88;;;-1.75;100.00
36600;BME280;35385;55.668;37.508;2023-01-29T00:04:12;99450.25;;;-1.94;100.00
36600;BME280;35385;55.668;37.508;2023-01-29T00:05:12;99418.09;;;-1.97;100.00
36600;BME280;35385;55.668;37.508;2023-01-29T00:06:13;99387.06;;;-2.08;100.00
36600;BME280;35385;55.668;37.508;2023-01-29T00:07:13;99462.81;;;-1.55;100.00
36600;BME280;35385;55.668;37.508;2023-01-29T00:08:14;99470.22;;;-1.43;100.00
36600;BME280;35385;55.668;37.508;2023-01-29T00:09:15;99439.59;;;-1.64;100.00
36600;BME280;35385;55.668;37.508;2023-01-29T00:10:15;99475.69;;;-1.49;100.00
36600;BME280;35385;55.668;37.508;2023-01-29T00:11:16;99478.25;;;-1.48;100.00
36600;BME280;35385;55.668;37.508;2023-01-29T00:12:17;99453.28;;;-1.58;100.00
36600;BME280;35385;55.668;37.508;2023-01-29T00:13:17;99473.94;;;-1.49;100.00
36600;BME280;35385;55.668;37.508;2023-01-29T00:14:18;99486.78;;;-1.43;100.00
36600;BME280;35385;55.668;37.508;2023-01-29T00:15:19;99490.16;;;-1.39;100.00
36600;BME280;35385;55.668;37.508;2023-01-29T00:16:20;99469.56;;;-1.73;100.00
36600;BME280;35385;55.668;37.508;2023-01-29T00:17:20;99463.50;;;-1.73;100.00
36600;BME280;35385;55.668;37.508;2023-01-29T00:18:21;99407.84;;;-2.03;100.00
36600;BME280;35385;55.668;37.508;2023-01-29T00:19:22;99343.75;;;-2.41;100.00
36600;BME280;35385;55.668;37.508;2023-01-29T00:20:22;99477.25;;;-1.68;100.00
36600;BME280;35385;55.668;37.508;2023-01-29T00:21:23;99403.78;;;-2.12;100.00
36600;BME280;35385;55.668;37.508;2023-01-29T00:22:24;99476.50;;;-1.72;100.00
36600;BME280;35385;55.668;37.508;2023-01-29T00:23:24;99479.94;;;-1.70;100.00
36600;BME280;35385;55.668;37.508;2023-01-29T00:24:25;99481.22;;;-1.82;100.00
36600;BME280;35385;55.668;37.508;2023-01-29T00:25:26;99475.78;;;-1.75;100.00
36600;BME280;35385;55.668;37.508;2023-01-29T00:26:27;99458.06;;;-1.92;100.00
36600;BME280;35385;55.668;37.508;2023-01-29T00:27:28;99455.38;;;-1.91;100.00
36600;BME280;35385;55.668;37.508;2023-01-29T00:28:28;99475.38;;;-1.88;100.00
36600;BME280;35385;55.668;37.508;2023-01-29T00:29:29;99465.66;;;-1.86;100.00
36600;BME280;35385;55.668;37.508;2023-01-29T00:30:29;99459.47;;;-1.84;100.00
36600;BME280;35385;55.668;37.508;2023-01-29T00:31:30;99454.56;;;-1.68;100.00
36600;BME280;35385;55.668;37.508;2023-01-29T00:32:31;99471.75;;;-1.61;100.00
36600;BME280;35385;55.668;37.508;2023-01-29T00:33:31;99385.59;;;-1.92;100.00
36600;BME280;35385;55.668;37.508;2023-01-29T00:34:32;99417.47;;;-1.81;100.00
36600;BME280;35385;55.668;37.508;2023-01-29T00:35:33;99472.31;;;-1.53;100.00
36600;BME280;35385;55.668;37.508;2023-01-29T00:36:33;99450.50;;;-1.53;100.00
36600;BME280;35385;55.668;37.508;2023-01-29T00:37:34;99470.47;;;-1.49;100.00
36600;BME280;35385;55.668;37.508;2023-01-29T00:38:35;99418.84;;;-1.94;100.00
36600;BME280;35385;55.668;37.508;2023-01-29T00:39:36;99384.19;;;-2.02;100.00
36600;BME280;35385;55.668;37.508;2023-01-29T00:40:40;99441.41;;;-1.66;100.00
36600;BME280;35385;55.668;37.508;2023-01-29T00:42:09;99448.25;;;-1.62;100.00
36600;BME280;35385;55.668;37.508;2023-01-29T00:43:29;99401.94;;;-1.85;100.00
36600;BME280;35385;55.668;37.508;2023-01-29T00:44:48;99423.91;;;-1.66;100.00
36600;BME280;35385;55.668;37.508;2023-01-29T00:45:58;99447.84;;;-1.52;100.00
36600;BME280;35385;55.668;37.508;2023-01-29T00:46:58;99465.97;;;-1.46;100.00
36600;BME280;35385;55.668;37.508;2023-01-29T00:47:59;99374.47;;;-1.98;100.00
36600;BME280;35385;55.668;37.508;2023-01-29T00:48:59;99377.84;;;-1.95;100.00
36600;BME280;35385;55.668;37.508;2023-01-29T00:50:01;99425.69;;;-1.66;100.00
36600;BME280;35385;55.668;37.508;2023-01-29T00:51:02;99437.53;;;-1.56;100.00
36600;BME280;35385;55.668;37.508;2023-01-29T00:52:03;99397.22;;;-1.75;100.00
36600;BME280;35385;55.668;37.508;2023-01-29T00:53:22;99425.28;;;-1.79;100.00
36600;BME280;35385;55.668;37.508;2023-01-29T00:54:23;99367.06;;;-2.10;100.00
36600;BME280;35385;55.668;37.508;2023-01-29T00:55:23;99436.97;;;-1.64;100.00
36600;BME280;35385;55.668;37.508;2023-01-29T00:56:24;99435.59;;;-1.74;100.00
36600;BME280;35385;55.668;37.508;2023-01-29T00:57:26;99455.28;;;-1.64;100.00
36600;BME280;35385;55.668;37.508;2023-01-29T00:58:27;99365.06;;;-2.02;100.00
36600;BME280;35385;55.668;37.508;2023-01-29T00:59:33;99454.78;;;-1.51;100.00
36600;BME280;35385;55.668;37.508;2023-01-29T01:00:33;99449.72;;;-1.55;100.00
36600;BME280;35385;55.668;37.508;2023-01-29T01:01:34;99442.91;;;-1.59;100.00
36600;BME280;35385;55.668;37.508;2023-01-29T01:02:53;99447.44;;;-1.64;100.00
36600;BME280;35385;55.668;37.508;2023-01-29T01:04:08;99466.28;;;-1.78;100.00
36600;BME280;35385;55.668;37.508;2023-01-29T01:05:11;99443.31;;;-1.95;100.00
36600;BME280;35385;55.668;37.508;2023-01-29T01:06:13;99465.06;;;-1.69;100.00
36600;BME280;35385;55.668;37.508;2023-01-29T01:07:13;99418.50;;;-1.85;100.00
36600;BME280;35385;55.668;37.508;2023-01-29T01:08:14;99371.91;;;-2.23;100.00
36600;BME280;35385;55.668;37.508;2023-01-29T01:09:36;99365.84;;;-2.25;100.00
36600;BME280;35385;55.668;37.508;2023-01-29T01:11:03;99452.44;;;-1.82;100.00
36600;BME280;35385;55.668;37.508;2023-01-29T01:12:04;99464.72;;;-1.84;100.00
36600;BME280;35385;55.668;37.508;2023-01-29T01:13:05;99364.38;;;-2.32;100.00
36600;BME280;35385;55.668;37.508;2023-01-29T01:14:06;99452.31;;;-1.79;100.00
36600;BME280;35385;55.668;37.508;2023-01-29T01:15:08;99454.25;;;-1.84;100.00
36600;BME280;35385;55.668;37.508;2023-01-29T01:16:12;99450.66;;;-1.81;100.00
36600;BME280;35385;55.668;37.508;2023-01-29T01:17:13;99451.63;;;-1.84;100.00
36600;BME280;35385;55.668;37.508;2023-01-29T01:18:14;99375.47;;;-2.26;100.00
36600;BME280;35385;55.668;37.508;2023-01-29T01:19:15;99454.13;;;-1.81;100.00
36600;BME280;35385;55.668;37.508;2023-01-29T01:20:16;99438.06;;;-1.95;100.00
36600;BME280;35385;55.668;37.508;2023-01-29T01:21:16;99415.19;;;-2.15;100.00
36600;BME280;35385;55.668;37.508;2023-01-29T01:22:17;99464.88;;;-2.13;100.00
36600;BME280;35385;55.668;37.508;2023-01-29T01:23:18;99405.00;;;-2.47;100.00
36600;BME280;35385;55.668;37.508;2023-01-29T01:24:19;99443.25;;;-2.18;100.00
36600;BME280;35385;55.668;37.508;2023-01-29T01:25:21;99407.34;;;-2.39;100.00
36600;BME280;35385;55.668;37.508;2023-01-29T01:26:21;99432.78;;;-2.18;100.00
36600;BME280;35385;55.668;37.508;2023-01-29T01:27:22;99438.38;;;-2.29;100.00
36600;BME280;35385;55.668;37.508;2023-01-29T01:28:23;99459.63;;;-2.13;100.00
36600;BME280;35385;55.668;37.508;2023-01-29T01:29:23;99443.03;;;-2.12;100.00
36600;BME280;35385;55.668;37.508;2023-01-29T01:30:25;99456.66;;;-2.02;100.00
36600;BME280;35385;55.668;37.508;2023-01-29T01:31:25;99452.53;;;-2.09;100.00
36600;BME280;35385;55.668;37.508;2023-01-29T01:32:26;99449.78;;;-2.05;100.00
36600;BME280;35385;55.668;37.508;2023-01-29T01:33:26;99425.03;;;-2.21;100.00
36600;BME280;35385;55.668;37.508;2023-01-29T01:34:27;99454.19;;;-2.07;100.00
36600;BME280;35385;55.668;37.508;2023-01-29T01:35:28;99376.44;;;-2.53;100.00
36600;BME280;35385;55.668;37.508;2023-01-29T01:36:28;99459.50;;;-2.08;100.00
36600;BME280;35385;55.668;37.508;2023-01-29T01:37:31;99412.84;;;-2.22;100.00
36600;BME280;35385;55.668;37.508;2023-01-29T01:38:32;99356.47;;;-2.56;100.00
36600;BME280;35385;55.668;37.508;2023-01-29T01:39:33;99433.25;;;-2.07;100.00
36600;BME280;35385;55.668;37.508;2023-01-29T01:40:33;99450.34;;;-1.97;100.00
36600;BME280;35385;55.668;37.508;2023-01-29T01:41:34;99300.72;;;-2.82;100.00
36600;BME280;35385;55.668;37.508;2023-01-29T01:42:34;99439.94;;;-1.98;100.00
36600;BME280;35385;55.668;37.508;2023-01-29T01:44:58;99448.72;;;-2.01;100.00
36600;BME280;35385;55.668;37.508;2023-01-29T01:46:00;99441.50;;;-2.18;100.00
36600;BME280;35385;55.668;37.508;2023-01-29T01:47:01;99436.19;;;-2.16;100.00
36600;BME280;35385;55.668;37.508;2023-01-29T01:48:11;99369.91;;;-2.41;100.00
36600;BME280;35385;55.668;37.508;2023-01-29T01:49:17;99420.53;;;-1.93;100.00
36600;BME280;35385;55.668;37.508;2023-01-29T01:51:49;99420.94;;;-1.80;100.00
36600;BME280;35385;55.668;37.508;2023-01-29T01:52:54;99441.91;;;-1.80;100.00
36600;BME280;35385;55.668;37.508;2023-01-29T01:54:16;99430.56;;;-1.81;100.00
36600;BME280;35385;55.668;37.508;2023-01-29T01:55:20;99422.66;;;-2.02;100.00
36600;BME280;35385;55.668;37.508;2023-01-29T01:56:27;99428.88;;;-2.31;100.00
36600;BME280;35385;55.668;37.508;2023-01-29T01:57:33;99430.13;;;-2.43;100.00
36600;BME280;35385;55.668;37.508;2023-01-29T01:58:40;99425.88;;;-2.45;100.00
36600;BME280;35385;55.668;37.508;2023-01-29T01:59:45;99430.56;;;-2.30;100.00
36600;BME280;35385;55.668;37.508;2023-01-29T02:00:47;99398.25;;;-2.29;100.00
36600;BME280;35385;55.668;37.508;2023-01-29T02:01:50;99428.03;;;-2.07;100.00
36600;BME280;35385;55.668;37.508;2023-01-29T02:02:53;99395.50;;;-2.25;100.00
36600;BME280;35385;55.668;37.508;2023-01-29T02:04:16;99408.97;;;-2.35;100.00
36600;BME280;35385;55.668;37.508;2023-01-29T02:05:36;99402.72;;;-2.31;100.00
36600;BME280;35385;55.668;37.508;2023-01-29T02:06:57;99422.53;;;-2.24;100.00
36600;BME280;35385;55.668;37.508;2023-01-29T02:08:31;99402.41;;;-2.22;100.00
36600;BME280;35385;55.668;37.508;2023-01-29T02:10:05;99414.28;;;-2.14;100.00
36600;BME280;35385;55.668;37.508;2023-01-29T02:11:07;99410.94;;;-2.17;100.00
36600;BME280;35385;55.668;37.508;2023-01-29T02:12:11;99410.09;;;-2.18;100.00
36600;BME280;35385;55.668;37.508;2023-01-29T02:13:13;99328.66;;;-2.58;100.00
36600;BME280;35385;55.668;37.508;2023-01-29T02:14:17;99299.25;;;-2.90;100.00
36600;BME280;35385;55.668;37.508;2023-01-29T02:15:18;99328.50;;;-2.54;100.00
36600;BME280;35385;55.668;37.508;2023-01-29T02:16:22;99310.34;;;-2.58;100.00
36600;BME280;35385;55.668;37.508;2023-01-29T02:17:23;99382.16;;;-2.17;100.00
36600;BME280;35385;55.668;37.508;2023-01-29T02:18:23;99381.13;;;-2.13;100.00
36600;BME280;35385;55.668;37.508;2023-01-29T02:21:19;99410.06;;;-1.93;100.00
36600;BME280;35385;55.668;37.508;2023-01-29T02:22:34;99404.84;;;-1.93;100.00
36600;BME280;35385;55.668;37.508;2023-01-29T02:24:03;99404.59;;;-1.87;100.00
36600;BME280;35385;55.668;37.508;2023-01-29T02:25:36;99405.38;;;-2.08;100.00
36600;BME280;35385;55.668;37.508;2023-01-29T02:28:55;99381.03;;;-2.10;100.00
36600;BME280;35385;55.668;37.508;2023-01-29T02:30:23;99391.16;;;-2.01;100.00
36600;BME280;35385;55.668;37.508;2023-01-29T02:31:39;99376.03;;;-1.93;100.00
36600;BME280;35385;55.668;37.508;2023-01-29T02:32:59;99345.28;;;-2.11;100.00
36600;BME280;35385;55.668;37.508;2023-01-29T02:34:32;99359.63;;;-1.98;100.00
36600;BME280;35385;55.668;37.508;2023-01-29T02:37:08;99338.00;;;-2.26;100.00
36600;BME280;35385;55.668;37.508;2023-01-29T02:38:17;99289.16;;;-2.51;100.00
36600;BME280;35385;55.668;37.508;2023-01-29T02:39:22;99287.00;;;-2.63;100.00
36600;BME280;35385;55.668;37.508;2023-01-29T02:40:30;99358.63;;;-2.17;100.00
36600;BME280;35385;55.668;37.508;2023-01-29T02:41:38;99368.22;;;-2.18;100.00
36600;BME280;35385;55.668;37.508;2023-01-29T02:42:52;99342.31;;;-2.25;100.00
36600;BME280;35385;55.668;37.508;2023-01-29T02:45:15;99363.50;;;-2.08;100.00
36600;BME280;35385;55.668;37.508;2023-01-29T02:47:34;99386.59;;;-2.19;100.00
36600;BME280;35385;55.668;37.508;2023-01-29T02:48:43;99356.00;;;-2.17;100.00
36600;BME280;35385;55.668;37.508;2023-01-29T02:51:23;99370.34;;;-2.04;100.00
36600;BME280;35385;55.668;37.508;2023-01-29T02:52:40;99363.75;;;-2.16;100.00
36600;BME280;35385;55.668;37.508;2023-01-29T02:55:28;99363.53;;;-2.33;100.00
36600;BME280;35385;55.668;37.508;2023-01-29T02:56:58;99337.19;;;-2.28;100.00
36600;BME280;35385;55.668;37.508;2023-01-29T02:58:08;99358.47;;;-2.14;100.00
36600;BME280;35385;55.668;37.508;2023-01-29T02:59:19;99269.53;;;-2.62;100.00
36600;BME280;35385;55.668;37.508;2023-01-29T03:00:25;99326.09;;;-2.35;100.00
36600;BME280;35385;55.668;37.508;2023-01-29T03:01:54;99286.22;;;-2.66;100.00
36600;BME280;35385;55.668;37.508;2023-01-29T03:03:19;99339.59;;;-2.22;100.00
36600;BME280;35385;55.668;37.508;2023-01-29T03:04:26;99341.19;;;-2.18;100.00
36600;BME280;35385;55.668;37.508;2023-01-29T03:05:39;99264.50;;;-2.68;100.00
36600;BME280;35385;55.668;37.508;2023-01-29T03:06:48;99345.63;;;-2.20;100.00
36600;BME280;35385;55.668;37.508;2023-01-29T03:07:57;99337.78;;;-2.20;100.00
36600;BME280;35385;55.668;37.508;2023-01-29T03:09:04;99336.69;;;-2.15;100.00
36600;BME280;35385;55.668;37.508;2023-01-29T03:10:16;99337.31;;;-2.08;100.00
36600;BME280;35385;55.668;37.508;2023-01-29T03:11:17;99330.22;;;-2.04;100.00
36600;BME280;35385;55.668;37.508;2023-01-29T03:12:22;99293.59;;;-2.29;100.00
36600;BME280;35385;55.668;37.508;2023-01-29T03:14:42;99303.09;;;-2.75;100.00
36600;BME280;35385;55.668;37.508;2023-01-29T03:16:13;99347.19;;;-2.39;100.00
36600;BME280;35385;55.668;37.508;2023-01-29T03:17:15;99334.69;;;-2.31;100.00
36600;BME280;35385;55.668;37.508;2023-01-29T03:18:21;99327.84;;;-2.35;100.00
36600;BME280;35385;55.668;37.508;2023-01-29T03:19:32;99327.56;;;-2.28;100.00
36600;BME280;35385;55.668;37.508;2023-01-29T03:21:03;99333.53;;;-2.47;100.00
36600;BME280;35385;55.668;37.508;2023-01-29T03:22:24;99327.84;;;-2.85;100.00
36600;BME280;35385;55.668;37.508;2023-01-29T03:23:29;99258.66;;;-3.26;100.00
36600;BME280;35385;55.668;37.508;2023-01-29T03:24:54;99220.66;;;-3.35;100.00
36600;BME280;35385;55.668;37.508;2023-01-29T03:26:15;99291.84;;;-2.77;100.00
36600;BME280;35385;55.668;37.508;2023-01-29T03:27:45;99313.56;;;-2.75;100.00
36600;BME280;35385;55.668;37.508;2023-01-29T03:29:06;99310.00;;;-2.74;100.00
36600;BME280;35385;55.668;37.508;2023-01-29T03:30:27;99298.50;;;-2.93;100.00
36600;BME280;35385;55.668;37.508;2023-01-29T03:31:49;99308.84;;;-2.90;100.00
36600;BME280;35385;55.668;37.508;2023-01-29T03:33:09;99316.41;;;-2.82;100.00
36600;BME280;35385;55.668;37.508;2023-01-29T03:34:16;99302.53;;;-2.85;100.00
36600;BME280;35385;55.668;37.508;2023-01-29T03:35:25;99253.78;;;-3.10;100.00
36600;BME280;35385;55.668;37.508;2023-01-29T03:36:40;99294.47;;;-2.77;100.00
36600;BME280;35385;55.668;37.508;2023-01-29T03:37:46;99297.88;;;-2.75;100.00
36600;BME280;35385;55.668;37.508;2023-01-29T03:38:47;99269.13;;;-3.01;100.00
36600;BME280;35385;55.668;37.508;2023-01-29T03:39:48;99289.78;;;-2.94;100.00
36600;BME280;35385;55.668;37.508;2023-01-29T03:40:57;99301.59;;;-2.82;100.00
36600;BME280;35385;55.668;37.508;2023-01-29T03:42:20;99293.69;;;-2.80;100.00
36600;BME280;35385;55.668;37.508;2023-01-29T03:43:33;99291.22;;;-2.85;100.00
36600;BME280;35385;55.668;37.508;2023-01-29T03:47:21;99273.88;;;-2.61;100.00
36600;BME280;35385;55.668;37.508;2023-01-29T03:48:46;99274.72;;;-2.61;100.00
36600;BME280;35385;55.668;37.508;2023-01-29T03:51:31;99271.19;;;-2.85;100.00
36600;BME280;35385;55.668;37.508;2023-01-29T03:52:42;99276.88;;;-2.73;100.00
36600;BME280;35385;55.668;37.508;2023-01-29T03:53:52;99263.59;;;-2.67;100.00
36600;BME280;35385;55.668;37.508;2023-01-29T03:57:34;99171.44;;;-2.97;100.00
36600;BME280;35385;55.668;37.508;2023-01-29T03:58:42;99256.31;;;-2.59;100.00
36600;BME280;35385;55.668;37.508;2023-01-29T03:59:48;99268.19;;;-2.74;100.00
36600;BME280;35385;55.668;37.508;2023-01-29T04:01:24;99262.47;;;-2.85;100.00
36600;BME280;35385;55.668;37.508;2023-01-29T04:02:30;99259.06;;;-2.87;100.00
36600;BME280;35385;55.668;37.508;2023-01-29T04:03:38;99204.22;;;-3.13;100.00
36600;BME280;35385;55.668;37.508;2023-01-29T04:04:44;99259.44;;;-2.73;100.00
36600;BME280;35385;55.668;37.508;2023-01-29T04:06:14;99250.31;;;-2.61;100.00
36600;BME280;35385;55.668;37.508;2023-01-29T04:07:18;99257.19;;;-2.59;100.00
36600;BME280;35385;55.668;37.508;2023-01-29T04:08:28;99249.47;;;-2.38;100.00
36600;BME280;35385;55.668;37.508;2023-01-29T04:09:33;99251.94;;;-2.34;100.00
36600;BME280;35385;55.668;37.508;2023-01-29T04:10:36;99248.22;;;-2.52;100.00
36600;BME280;35385;55.668;37.508;2023-01-29T04:11:43;99236.50;;;-2.65;100.00
36600;BME280;35385;55.668;37.508;2023-01-29T04:12:57;99234.03;;;-2.69;100.00
36600;BME280;35385;55.668;37.508;2023-01-29T04:13:59;99235.66;;;-2.65;100.00
36600;BME280;35385;55.668;37.508;2023-01-29T04:15:00;99243.44;;;-2.64;100.00
36600;BME280;35385;55.668;37.508;2023-01-29T04:16:05;99248.56;;;-2.61;100.00
36600;BME280;35385;55.668;37.508;2023-01-29T04:17:15;99242.75;;;-2.69;100.00
36600;BME280;35385;55.668;37.508;2023-01-29T04:18:17;99165.03;;;-3.13;100.00
36600;BME280;35385;55.668;37.508;2023-01-29T04:19:17;99227.84;;;-2.67;100.00
36600;BME280;35385;55.668;37.508;2023-01-29T04:20:19;99237.06;;;-2.57;100.00
36600;BME280;35385;55.668;37.508;2023-01-29T04:21:20;99225.81;;;-2.59;100.00
36600;BME280;35385;55.668;37.508;2023-01-29T04:22:33;99225.03;;;-2.61;100.00
36600;BME280;35385;55.668;37.508;2023-01-29T04:23:34;99181.56;;;-2.88;100.00
36600;BME280;35385;55.668;37.508;2023-01-29T04:24:34;99184.16;;;-2.88;100.00
36600;BME280;35385;55.668;37.508;2023-01-29T04:25:48;99242.50;;;-2.38;100.00
36600;BME280;35385;55.668;37.508;2023-01-29T04:31:07;99241.03;;;-2.70;100.00
36600;BME280;35385;55.668;37.508;2023-01-29T04:33:42;99244.22;;;-2.87;100.00
36600;BME280;35385;55.668;37.508;2023-01-29T04:35:46;99237.25;;;-2.86;100.00
36600;BME280;35385;55.668;37.508;2023-01-29T04:36:50;99240.72;;;-2.86;100.00
36600;BME280;35385;55.668;37.508;2023-01-29T04:39:24;99237.16;;;-2.83;100.00
36600;BME280;35385;55.668;37.508;2023-01-29T04:42:05;99234.16;;;-2.72;100.00
36600;BME280;35385;55.668;37.508;2023-01-29T04:43:20;99228.31;;;-2.56;100.00
36600;BME280;35385;55.668;37.508;2023-01-29T04:44:30;99147.44;;;-3.08;100.00
36600;BME280;35385;55.668;37.508;2023-01-29T04:45:39;99236.94;;;-2.77;100.00
36600;BME280;35385;55.668;37.508;2023-01-29T04:51:04;99231.66;;;-2.75;100.00
36600;BME280;35385;55.668;37.508;2023-01-29T04:52:08;99229.91;;;-2.75;100.00
36600;BME280;35385;55.668;37.508;2023-01-29T04:53:24;99204.06;;;-2.84;100.00
36600;BME280;35385;55.668;37.508;2023-01-29T04:56:47;99148.91;;;-3.01;100.00
36600;BME280;35385;55.668;37.508;2023-01-29T04:58:29;99222.16;;;-2.78;100.00
36600;BME280;35385;55.668;37.508;2023-01-29T04:59:33;99139.16;;;-3.46;100.00
36600;BME280;35385;55.668;37.508;2023-01-29T05:00:41;99178.28;;;-3.18;100.00
36600;BME280;35385;55.668;37.508;2023-01-29T05:01:42;99217.53;;;-2.95;100.00
36600;BME280;35385;55.668;37.508;2023-01-29T05:02:43;99198.53;;;-3.00;100.00
36600;BME280;35385;55.668;37.508;2023-01-29T05:03:49;99211.34;;;-2.92;100.00
36600;BME280;35385;55.668;37.508;2023-01-29T05:04:51;99211.63;;;-3.01;100.00
36600;BME280;35385;55.668;37.508;2023-01-29T05:05:54;99222.69;;;-2.93;100.00
36600;BME280;35385;55.668;37.508;2023-01-29T05:07:01;99193.09;;;-2.94;100.00
36600;BME280;35385;55.668;37.508;2023-01-29T05:08:04;99156.28;;;-3.12;100.00
36600;BME280;35385;55.668;37.508;2023-01-29T05:09:07;99170.19;;;-2.87;100.00
36600;BME280;35385;55.668;37.508;2023-01-29T05:10:09;99214.09;;;-2.72;100.00
36600;BME280;35385;55.668;37.508;2023-01-29T05:11:12;99200.59;;;-2.85;100.00
36600;BME280;35385;55.668;37.508;2023-01-29T05:12:14;99200.59;;;-2.85;100.00
36600;BME280;35385;55.668;37.508;2023-01-29T05:13:18;99222.69;;;-2.93;100.00
36600;BME280;35385;55.668;37.508;2023-01-29T05:14:21;99155.22;;;-3.32;100.00
36600;BME280;35385;55.668;37.508;2023-01-29T05:15:43;99141.63;;;-3.66;100.00
36600;BME280;35385;55.668;37.508;2023-01-29T05:16:51;99210.69;;;-2.99;100.00
36600;BME280;35385;55.668;37.508;2023-01-29T05:17:52;99200.78;;;-2.89;100.00
36600;BME280;35385;55.668;37.508;2023-01-29T05:18:53;99218.34;;;-2.69;100.00
36600;BME280;35385;55.668;37.508;2023-01-29T05:19:55;99213.94;;;-2.67;100.00
36600;BME280;35385;55.668;37.508;2023-01-29T05:20:57;99209.84;;;-2.74;100.00
36600;BME280;35385;55.668;37.508;2023-01-29T05:21:59;99209.63;;;-2.93;100.00
36600;BME280;35385;55.668;37.508;2023-01-29T05:23:00;99216.88;;;-3.01;100.00
36600;BME280;35385;55.668;37.508;2023-01-29T05:24:15;99135.28;;;-3.59;100.00
36600;BME280;35385;55.668;37.508;2023-01-29T05:25:23;99209.69;;;-3.19;100.00
36600;BME280;35385;55.668;37.508;2023-01-29T05:26:25;99150.59;;;-3.48;100.00
36600;BME280;35385;55.668;37.508;2023-01-29T05:27:46;99222.53;;;-3.13;100.00
36600;BME280;35385;55.668;37.508;2023-01-29T05:29:06;99218.56;;;-3.25;100.00
36600;BME280;35385;55.668;37.508;2023-01-29T05:30:07;99133.16;;;-3.74;100.00
36600;BME280;35385;55.668;37.508;2023-01-29T05:31:09;99213.28;;;-3.24;100.00
36600;BME280;35385;55.668;37.508;2023-01-29T05:32:10;99214.19;;;-3.25;100.00
36600;BME280;35385;55.668;37.508;2023-01-29T05:34:15;99209.94;;;-3.27;100.00
36600;BME280;35385;55.668;37.508;2023-01-29T05:35:16;99202.53;;;-3.14;100.00
36600;BME280;35385;55.668;37.508;2023-01-29T05:36:17;99234.81;;;-2.91;100.00
36600;BME280;35385;55.668;37.508;2023-01-29T05:37:17;99208.13;;;-3.00;100.00
36600;BME280;35385;55.668;37.508;2023-01-29T05:38:19;99128.16;;;-3.54;100.00
36600;BME280;35385;55.668;37.508;2023-01-29T05:39:19;99135.13;;;-3.54;100.00
36600;BME280;35385;55.668;37.508;2023-01-29T05:40:20;99217.09;;;-3.07;100.00
36600;BME280;35385;55.668;37.508;2023-01-29T05:41:21;99215.59;;;-3.14;100.00
36600;BME280;35385;55.668;37.508;2023-01-29T05:42:21;99217.34;;;-3.15;100.00
36600;BME280;35385;55.668;37.508;2023-01-29T05:43:24;99211.13;;;-3.11;100.00
36600;BME280;35385;55.668;37.508;2023-01-29T05:44:25;99210.06;;;-3.05;100.00
36600;BME280;35385;55.668;37.508;2023-01-29T05:45:25;99214.16;;;-2.98;100.00
36600;BME280;35385;55.668;37.508;2023-01-29T05:46:26;99213.34;;;-3.00;100.00
36600;BME280;35385;55.668;37.508;2023-01-29T05:47:26;99207.13;;;-2.96;100.00
36600;BME280;35385;55.668;37.508;2023-01-29T05:48:28;99211.03;;;-3.08;100.00
36600;BME280;35385;55.668;37.508;2023-01-29T05:49:28;99215.63;;;-2.90;100.00
36600;BME280;35385;55.668;37.508;2023-01-29T05:50:29;99221.41;;;-2.81;100.00
36600;BME280;35385;55.668;37.508;2023-01-29T05:51:30;99226.91;;;-2.89;100.00
36600;BME280;35385;55.668;37.508;2023-01-29T05:52:30;99221.03;;;-2.96;100.00
36600;BME280;35385;55.668;37.508;2023-01-29T05:53:32;99218.81;;;-3.06;100.00
36600;BME280;35385;55.668;37.508;2023-01-29T05:54:32;99216.16;;;-3.05;100.00
36600;BME280;35385;55.668;37.508;2023-01-29T05:55:33;99202.47;;;-3.13;100.00
36600;BME280;35385;55.668;37.508;2023-01-29T05:56:33;99229.25;;;-2.81;100.00
36600;BME280;35385;55.668;37.508;2023-01-29T05:57:34;99229.19;;;-2.80;100.00
36600;BME280;35385;55.668;37.508;2023-01-29T05:58:35;99153.19;;;-2.99;100.00
36600;BME280;35385;55.668;37.508;2023-01-29T05:59:35;99185.72;;;-2.82;100.00
36600;BME280;35385;55.668;37.508;2023-01-29T06:00:36;99207.81;;;-2.91;100.00
36600;BME280;35385;55.668;37.508;2023-01-29T06:01:37;99198.81;;;-3.07;100.00
36600;BME280;35385;55.668;37.508;2023-01-29T06:02:38;99236.28;;;-2.83;100.00
36600;BME280;35385;55.668;37.508;2023-01-29T06:03:39;99203.56;;;-2.94;100.00
36600;BME280;35385;55.668;37.508;2023-01-29T06:04:40;99225.78;;;-2.82;100.00
36600;BME280;35385;55.668;37.508;2023-01-29T06:05:40;99191.88;;;-3.08;100.00
36600;BME280;35385;55.668;37.508;2023-01-29T06:06:41;99214.09;;;-2.97;100.00
36600;BME280;35385;55.668;37.508;2023-01-29T06:07:41;98947.13;;;-4.52;100.00
36600;BME280;35385;55.668;37.508;2023-01-29T06:08:44;99152.03;;;-3.15;100.00
36600;BME280;35385;55.668;37.508;2023-01-29T06:09:45;99211.41;;;-2.70;100.00
36600;BME280;35385;55.668;37.508;2023-01-29T06:10:45;99192.25;;;-2.94;100.00
36600;BME280;35385;55.668;37.508;2023-01-29T06:11:46;99215.44;;;-2.85;100.00
36600;BME280;35385;55.668;37.508;2023-01-29T06:12:47;99197.66;;;-3.00;100.00
36600;BME280;35385;55.668;37.508;2023-01-29T06:13:47;99211.38;;;-2.94;100.00
36600;BME280;35385;55.668;37.508;2023-01-29T06:14:48;99214.84;;;-2.93;100.00
36600;BME280;35385;55.668;37.508;2023-01-29T06:15:48;99229.16;;;-3.03;100.00
36600;BME280;35385;55.668;37.508;2023-01-29T06:16:49;99221.03;;;-2.96;100.00
36600;BME280;35385;55.668;37.508;2023-01-29T06:17:50;99163.47;;;-3.17;100.00
36600;BME280;35385;55.668;37.508;2023-01-29T06:18:52;99224.53;;;-2.72;100.00
36600;BME280;35385;55.668;37.508;2023-01-29T06:19:52;99229.66;;;-2.69;100.00
36600;BME280;35385;55.668;37.508;2023-01-29T06:20:53;99222.53;;;-2.64;100.00